Time;durP1;ratioP1;P1;durP2;ratioP2;P2;SDS_P1;SDS_P2;PMS_P1;PMS_P2;Temp;Humidity;BMP_temperature;BMP_pressure;BME280_temperature;BME280_humidity;BME280_pressure;Samples;Min_cycle;Max_cycle;Signal;HPM_P1;HPM_P2
2022/01/04 00:17:43;;;;;;;;;;;25.30;99.90;;;;;;5111306;27;19917;-74
2022/01/04 00:20:11;;;;;;;;;;;25.40;99.90;;;;;;5110749;28;19912;-71
2022/01/04 00:22:37;;;;;;;;;;;25.50;99.90;;;;;;5111532;28;20440;-73
2022/01/04 00:25:04;;;;;;;;;;;25.60;99.90;;;;;;5111239;28;19938;-72
2022/01/04 00:27:31;;;;;;;;;;;25.80;99.90;;;;;;5106967;28;19912;-71
2022/01/04 00:29:57;;;;;;;;;;;26.00;99.90;;;;;;5109256;28;19912;-77
2022/01/04 00:32:23;;;;;;;;;;;26.10;99.90;;;;;;5109900;28;19912;-71
2022/01/04 00:34:50;;;;;;;;;;;26.20;99.90;;;;;;5111513;28;20411;-71
2022/01/04 00:37:16;;;;;;;;;;;26.30;99.90;;;;;;5110593;28;19968;-73
2022/01/04 00:39:42;;;;;;;;;;;26.40;99.90;;;;;;5110617;28;19915;-72
2022/01/04 00:42:08;;;;;;;;;;;26.40;99.90;;;;;;5100804;28;20435;-72
2022/01/04 00:44:34;;;;;;;;;;;26.40;99.90;;;;;;5090773;28;19995;-73
2022/01/04 00:47:01;;;;;;;;;;;26.40;99.90;;;;;;5091751;28;20057;-73
2022/01/04 00:49:27;;;;;;;;;;;26.40;99.90;;;;;;5089992;28;19917;-74
2022/01/04 00:51:53;;;;;;;;;;;26.40;99.90;;;;;;5095205;28;19919;-74
2022/01/04 00:54:20;;;;;;;;;;;26.50;99.90;;;;;;5110953;28;20076;-73
2022/01/04 00:56:47;;;;;;;;;;;26.50;99.90;;;;;;5110856;28;19916;-72
2022/01/04 00:59:14;;;;;;;;;;;26.60;99.90;;;;;;5103152;28;19993;-74
2022/01/04 01:01:40;;;;;;;;;;;26.70;99.90;;;;;;5107549;28;19915;-72
2022/01/04 01:04:07;;;;;;;;;;;26.80;99.90;;;;;;5114989;28;20006;-73
2022/01/04 01:06:33;;;;;;;;;;;26.90;99.90;;;;;;5131057;28;19914;-73
2022/01/04 01:08:59;;;;;;;;;;;27.00;99.90;;;;;;5112057;28;19912;-72
2022/01/04 01:11:26;;;;;;;;;;;27.00;99.90;;;;;;5108888;28;19953;-71
2022/01/04 01:13:52;;;;;;;;;;;27.00;99.90;;;;;;5109117;28;19986;-72
2022/01/04 01:16:19;;;;;;;;;;;27.00;99.90;;;;;;5109769;28;19943;-73
2022/01/04 01:18:45;;;;;;;;;;;27.00;99.90;;;;;;5121578;27;19965;-70
2022/01/04 01:21:12;;;;;;;;;;;27.00;99.90;;;;;;5122322;28;19918;-72
2022/01/04 01:23:39;;;;;;;;;;;27.10;99.90;;;;;;5119970;28;19916;-72
2022/01/04 01:26:06;;;;;;;;;;;27.10;99.90;;;;;;5121365;28;20006;-72
2022/01/04 01:28:33;;;;;;;;;;;27.10;99.90;;;;;;5117032;28;20355;-70
2022/01/04 01:30:59;;;;;;;;;;;27.20;99.90;;;;;;5112368;28;20162;-71
2022/01/04 01:33:27;;;;;;;;;;;27.10;99.90;;;;;;5115223;28;19918;-79
2022/01/04 01:35:54;;;;;;;;;;;27.20;99.90;;;;;;5116721;28;19912;-76
2022/01/04 01:38:20;;;;;;;;;;;27.30;99.90;;;;;;5107215;28;19912;-76
2022/01/04 01:40:47;;;;;;;;;;;27.40;99.90;;;;;;5107208;28;20253;-77
2022/01/04 01:43:14;;;;;;;;;;;27.40;99.90;;;;;;5114077;28;19908;-74
2022/01/04 01:45:40;;;;;;;;;;;27.50;99.90;;;;;;5116683;28;20330;-76
2022/01/04 01:48:06;;;;;;;;;;;27.50;99.90;;;;;;5113014;28;19966;-73
2022/01/04 01:50:33;;;;;;;;;;;27.50;99.90;;;;;;5106493;28;20344;-75
2022/01/04 01:52:59;;;;;;;;;;;27.50;99.90;;;;;;5106104;28;20014;-75
2022/01/04 01:55:26;;;;;;;;;;;27.50;99.90;;;;;;5104037;28;20283;-76
2022/01/04 01:57:52;;;;;;;;;;;27.50;99.90;;;;;;5099608;28;19999;-76
2022/01/04 02:00:20;;;;;;;;;;;27.60;99.90;;;;;;5104574;28;19911;-73
2022/01/04 02:02:46;;;;;;;;;;;27.70;99.90;;;;;;5114731;28;19914;-73
2022/01/04 02:05:13;;;;;;;;;;;27.80;99.90;;;;;;5115425;28;20004;-72
2022/01/04 02:07:40;;;;;;;;;;;27.90;99.90;;;;;;5111824;28;19912;-74
2022/01/04 02:10:07;;;;;;;;;;;28.10;99.90;;;;;;5106559;27;19939;-76
2022/01/04 02:12:38;;;;;;;;;;;28.10;99.90;;;;;;5104658;28;19951;-74
2022/01/04 02:15:06;;;;;;;;;;;28.20;99.90;;;;;;5109937;28;19939;-74
2022/01/04 02:17:32;;;;;;;;;;;28.30;99.90;;;;;;5105158;28;19924;-74
2022/01/04 02:19:59;;;;;;;;;;;28.20;99.90;;;;;;5100725;28;20499;-72
2022/01/04 02:22:26;;;;;;;;;;;28.40;99.90;;;;;;5105617;28;19916;-72
2022/01/04 02:24:53;;;;;;;;;;;28.30;99.90;;;;;;5100836;28;19977;-72
2022/01/04 02:27:19;;;;;;;;;;;28.30;99.90;;;;;;5099540;28;20277;-73
2022/01/04 02:29:46;;;;;;;;;;;28.30;99.90;;;;;;5099778;28;19912;-71
2022/01/04 02:32:12;;;;;;;;;;;28.50;99.90;;;;;;5103997;28;19907;-75
2022/01/04 02:34:39;;;;;;;;;;;28.50;99.90;;;;;;5105426;28;19911;-71
2022/01/04 02:37:06;;;;;;;;;;;28.40;99.90;;;;;;5102498;28;19922;-70
2022/01/04 02:39:36;;;;;;;;;;;28.50;99.90;;;;;;5101326;28;19951;-72
2022/01/04 02:42:04;;;;;;;;;;;28.60;99.90;;;;;;5105401;28;20377;-73
2022/01/04 02:44:30;;;;;;;;;;;28.70;99.90;;;;;;5098974;28;19913;-71
2022/01/04 02:46:56;;;;;;;;;;;28.70;99.90;;;;;;5098511;28;19912;-70
2022/01/04 02:49:22;;;;;;;;;;;28.70;99.90;;;;;;5101231;28;19912;-72
2022/01/04 02:51:49;;;;;;;;;;;28.60;99.90;;;;;;5107529;28;20281;-75
2022/01/04 02:54:15;;;;;;;;;;;28.80;99.90;;;;;;5105624;28;20284;-71
2022/01/04 02:56:41;;;;;;;;;;;28.80;99.90;;;;;;5118898;27;19916;-71
2022/01/04 02:59:07;;;;;;;;;;;28.70;99.90;;;;;;5130443;27;20450;-72
2022/01/04 03:01:34;;;;;;;;;;;28.80;99.90;;;;;;5113847;27;19908;-74
2022/01/04 03:04:00;;;;;;;;;;;28.70;99.90;;;;;;5113821;28;19907;-71
2022/01/04 03:06:26;;;;;;;;;;;28.60;99.90;;;;;;5115397;27;20006;-72
2022/01/04 03:08:54;;;;;;;;;;;28.70;99.90;;;;;;5102032;28;19966;-71
2022/01/04 03:11:20;;;;;;;;;;;28.80;99.90;;;;;;5111180;28;19918;-74
2022/01/04 03:13:46;;;;;;;;;;;28.90;99.90;;;;;;5115859;28;20341;-75
2022/01/04 03:16:12;;;;;;;;;;;28.90;99.90;;;;;;5111036;28;19928;-73
2022/01/04 03:18:57;;;;;;;;;;;29.00;99.90;;;;;;5099795;28;20344;-74
2022/01/04 03:21:23;;;;;;;;;;;28.90;99.90;;;;;;5096629;28;19919;-68
2022/01/04 03:23:49;;;;;;;;;;;28.90;99.90;;;;;;5095432;28;20283;-71
2022/01/04 03:26:16;;;;;;;;;;;29.00;99.90;;;;;;5105794;28;20428;-75
2022/01/04 03:28:42;;;;;;;;;;;29.10;99.90;;;;;;5104721;28;19912;-74
2022/01/04 03:31:09;;;;;;;;;;;29.30;99.90;;;;;;5105100;28;20028;-70
2022/01/04 03:33:35;;;;;;;;;;;29.20;99.90;;;;;;5106542;28;19908;-74
2022/01/04 03:36:03;;;;;;;;;;;29.30;99.90;;;;;;5104307;28;19919;-72
2022/01/04 03:38:29;;;;;;;;;;;29.20;99.90;;;;;;5097063;28;19935;-74
2022/01/04 03:40:56;;;;;;;;;;;29.10;99.90;;;;;;5101454;28;20432;-73
2022/01/04 03:43:22;;;;;;;;;;;29.30;99.90;;;;;;5102930;28;20002;-69
2022/01/04 03:45:49;;;;;;;;;;;29.50;99.90;;;;;;5095123;28;20284;-69
2022/01/04 03:48:15;;;;;;;;;;;29.60;99.90;;;;;;5099404;27;19935;-72
2022/01/04 03:50:41;;;;;;;;;;;29.50;99.90;;;;;;5105313;27;19911;-75
2022/01/04 03:53:08;;;;;;;;;;;29.50;99.90;;;;;;5104016;28;20281;-74
2022/01/04 03:55:34;;;;;;;;;;;29.80;99.90;;;;;;5101144;28;20277;-73
2022/01/04 03:58:00;;;;;;;;;;;29.90;99.90;;;;;;5100550;28;19949;-71
2022/01/04 04:00:26;;;;;;;;;;;29.70;99.90;;;;;;5097282;28;19912;-74
2022/01/04 04:02:53;;;;;;;;;;;29.70;99.90;;;;;;5106901;28;19925;-71
2022/01/04 04:05:19;;;;;;;;;;;29.60;99.90;;;;;;5096357;28;19908;-72
2022/01/04 04:07:45;;;;;;;;;;;29.60;99.90;;;;;;5107362;28;19919;-74
2022/01/04 04:10:11;;;;;;;;;;;29.50;99.90;;;;;;5109661;28;20003;-72
2022/01/04 04:12:38;;;;;;;;;;;29.40;99.90;;;;;;5107163;28;19922;-73
2022/01/04 04:15:08;;;;;;;;;;;29.40;99.90;;;;;;5100717;28;19958;-76
2022/01/04 04:17:35;;;;;;;;;;;29.50;99.90;;;;;;5102185;28;20416;-72
2022/01/04 04:20:02;;;;;;;;;;;29.60;99.90;;;;;;5102502;28;19908;-73
2022/01/04 04:22:28;;;;;;;;;;;29.60;99.90;;;;;;5113638;28;19912;-75
2022/01/04 04:24:55;;;;;;;;;;;29.60;99.90;;;;;;5102423;28;19959;-71
2022/01/04 04:27:21;;;;;;;;;;;29.60;99.90;;;;;;5101947;28;19916;-72
2022/01/04 04:29:47;;;;;;;;;;;29.60;99.90;;;;;;5096683;28;19912;-75
2022/01/04 04:32:13;;;;;;;;;;;29.70;99.90;;;;;;5100802;28;20339;-74
2022/01/04 04:34:39;;;;;;;;;;;29.80;99.90;;;;;;5101116;28;19920;-74
2022/01/04 04:37:05;;;;;;;;;;;29.80;99.90;;;;;;5102355;28;19912;-77
2022/01/04 04:39:32;;;;;;;;;;;29.80;99.90;;;;;;5102896;28;20348;-72
2022/01/04 04:41:58;;;;;;;;;;;29.80;99.90;;;;;;5106770;28;19916;-74
2022/01/04 04:44:24;;;;;;;;;;;29.80;99.90;;;;;;5102135;28;20003;-71
2022/01/04 04:46:50;;;;;;;;;;;29.80;99.90;;;;;;5097415;28;20275;-76
2022/01/04 04:49:17;;;;;;;;;;;29.70;99.90;;;;;;5100608;28;20368;-76
2022/01/04 04:51:43;;;;;;;;;;;29.80;99.90;;;;;;5092988;28;19919;-73
2022/01/04 04:54:09;;;;;;;;;;;29.90;99.90;;;;;;5103221;28;20485;-74
2022/01/04 04:56:38;;;;;;;;;;;30.00;99.90;;;;;;5104000;28;20289;-74
2022/01/04 04:59:05;;;;;;;;;;;30.00;99.90;;;;;;5103138;28;19916;-76
2022/01/04 05:01:32;;;;;;;;;;;30.20;99.90;;;;;;5101675;28;19908;-73
2022/01/04 05:03:58;;;;;;;;;;;30.40;99.90;;;;;;5106848;28;19923;-74
2022/01/04 05:06:25;;;;;;;;;;;30.60;99.90;;;;;;5105385;28;20001;-74
2022/01/04 05:08:52;;;;;;;;;;;30.60;99.90;;;;;;5110180;28;19965;-72
2022/01/04 05:11:18;;;;;;;;;;;30.70;99.90;;;;;;5109510;27;20368;-71
2022/01/04 05:13:44;;;;;;;;;;;30.80;99.90;;;;;;5108822;28;19918;-73
2022/01/04 05:16:11;;;;;;;;;;;30.90;99.90;;;;;;5108174;27;20251;-74
2022/01/04 05:18:37;;;;;;;;;;;31.00;99.90;;;;;;5097381;28;19919;-75
2022/01/04 05:21:03;;;;;;;;;;;31.10;99.90;;;;;;5103373;27;19912;-75
2022/01/04 05:23:30;;;;;;;;;;;31.20;99.90;;;;;;5104532;28;19963;-75
2022/01/04 05:25:57;;;;;;;;;;;31.10;99.90;;;;;;5096818;28;19912;-75
2022/01/04 05:28:23;;;;;;;;;;;31.00;99.90;;;;;;5105318;28;19994;-76
2022/01/04 05:30:49;;;;;;;;;;;31.20;99.60;;;;;;5099608;28;19908;-76
2022/01/04 05:33:16;;;;;;;;;;;31.20;98.70;;;;;;5097035;28;20387;-75
2022/01/04 05:35:42;;;;;;;;;;;31.20;98.40;;;;;;5106456;27;19916;-73
2022/01/04 05:38:08;;;;;;;;;;;31.20;98.20;;;;;;5108198;28;19912;-77
2022/01/04 05:40:34;;;;;;;;;;;31.10;99.30;;;;;;5106841;27;19969;-74
2022/01/04 05:43:01;;;;;;;;;;;31.00;99.60;;;;;;5111268;28;19959;-77
2022/01/04 05:45:28;;;;;;;;;;;30.90;99.90;;;;;;5109858;28;19912;-76
2022/01/04 05:47:55;;;;;;;;;;;31.00;99.90;;;;;;5115154;27;19911;-73
2022/01/04 05:50:21;;;;;;;;;;;31.10;99.70;;;;;;5110999;28;19911;-72
2022/01/04 05:52:47;;;;;;;;;;;31.20;97.80;;;;;;5105012;28;19975;-73
2022/01/04 05:55:13;;;;;;;;;;;31.10;97.70;;;;;;5105196;28;19916;-76
2022/01/04 05:57:40;;;;;;;;;;;31.00;97.20;;;;;;5108163;28;20375;-77
2022/01/04 06:00:06;;;;;;;;;;;30.90;97.90;;;;;;5105202;28;20319;-78
2022/01/04 06:02:33;;;;;;;;;;;30.90;98.90;;;;;;5107991;28;19995;-75
2022/01/04 06:04:59;;;;;;;;;;;31.10;98.90;;;;;;5103262;28;19911;-76
2022/01/04 06:07:26;;;;;;;;;;;31.20;98.20;;;;;;5106451;28;19919;-79
2022/01/04 06:09:54;;;;;;;;;;;31.40;97.80;;;;;;5104634;28;19912;-76
2022/01/04 06:15:08;;;;;;;;;;;31.40;97.10;;;;;;5108985;28;20390;-73
2022/01/04 06:17:37;;;;;;;;;;;31.50;96.30;;;;;;5113122;28;19919;-74
2022/01/04 06:20:04;;;;;;;;;;;31.60;96.40;;;;;;5110850;28;19913;-73
2022/01/04 06:22:30;;;;;;;;;;;31.50;95.80;;;;;;5105905;28;19998;-74
2022/01/04 06:24:57;;;;;;;;;;;31.60;95.80;;;;;;5102663;28;19912;-74
2022/01/04 06:27:23;;;;;;;;;;;31.70;94.40;;;;;;5105012;28;19911;-75
2022/01/04 06:29:50;;;;;;;;;;;31.70;94.60;;;;;;5110952;28;19912;-73
2022/01/04 06:32:16;;;;;;;;;;;31.80;93.80;;;;;;5113378;28;19908;-74
2022/01/04 06:34:43;;;;;;;;;;;31.80;93.70;;;;;;5112997;28;19994;-72
2022/01/04 06:37:10;;;;;;;;;;;31.90;92.70;;;;;;5109827;28;19919;-77
2022/01/04 06:39:37;;;;;;;;;;;31.80;94.50;;;;;;5108380;28;20257;-75
2022/01/04 06:42:04;;;;;;;;;;;31.70;95.10;;;;;;5118701;27;20355;-72
2022/01/04 06:44:30;;;;;;;;;;;31.80;92.70;;;;;;5114478;28;19912;-75
2022/01/04 06:46:57;;;;;;;;;;;31.80;93.90;;;;;;5110760;28;19916;-75
2022/01/04 06:49:23;;;;;;;;;;;31.70;93.80;;;;;;5112547;28;19919;-71
2022/01/04 06:51:49;;;;;;;;;;;31.80;94.60;;;;;;5115106;28;19955;-70
2022/01/04 06:54:17;;;;;;;;;;;31.90;94.10;;;;;;5114380;28;19912;-71
2022/01/04 06:56:43;;;;;;;;;;;32.00;94.20;;;;;;5114479;28;19915;-72
2022/01/04 06:59:09;;;;;;;;;;;32.00;93.90;;;;;;5113810;28;19919;-71
2022/01/04 07:01:37;;;;;;;;;;;32.00;92.70;;;;;;5114474;28;19912;-70
2022/01/04 07:04:04;;;;;;;;;;;32.00;93.10;;;;;;5114087;28;19960;-72
2022/01/04 07:06:31;;;;;;;;;;;32.00;92.90;;;;;;5114769;28;19915;-72
2022/01/04 07:08:57;;;;;;;;;;;32.20;93.30;;;;;;5115567;28;20329;-73
2022/01/04 07:11:23;;;;;;;;;;;32.10;93.10;;;;;;5103784;28;19921;-75
2022/01/04 07:13:49;;;;;;;;;;;32.20;91.30;;;;;;5114595;28;19912;-75
2022/01/04 07:16:16;;;;;;;;;;;32.20;92.70;;;;;;5096961;28;19908;-75
2022/01/04 07:18:46;;;;;;;;;;;32.10;92.90;;;;;;5104509;28;19908;-77
2022/01/04 07:21:13;;;;;;;;;;;32.10;93.00;;;;;;5115278;28;19951;-73
2022/01/04 07:23:40;;;;;;;;;;;32.00;93.60;;;;;;5115297;28;19907;-73
2022/01/04 07:26:06;;;;;;;;;;;31.90;93.20;;;;;;5131540;27;19915;-72
2022/01/04 07:28:32;;;;;;;;;;;31.80;93.10;;;;;;5112165;27;19916;-75
2022/01/04 07:31:00;;;;;;;;;;;31.80;92.80;;;;;;5112604;28;20352;-72
2022/01/04 07:33:26;;;;;;;;;;;32.00;92.80;;;;;;5110957;28;19920;-73
2022/01/04 07:35:52;;;;;;;;;;;32.00;92.30;;;;;;5112808;28;19947;-72
2022/01/04 07:38:19;;;;;;;;;;;31.90;92.30;;;;;;5114926;28;20329;-73
2022/01/04 07:40:45;;;;;;;;;;;31.90;92.90;;;;;;5114694;28;19908;-73
2022/01/04 07:43:12;;;;;;;;;;;31.80;92.50;;;;;;5114484;28;19984;-72
2022/01/04 07:45:38;;;;;;;;;;;31.80;93.10;;;;;;5111422;28;19916;-72
2022/01/04 07:48:06;;;;;;;;;;;31.80;93.30;;;;;;5114372;28;19915;-73
2022/01/04 07:50:32;;;;;;;;;;;31.70;92.40;;;;;;5114498;28;20372;-71
2022/01/04 07:52:58;;;;;;;;;;;31.70;93.40;;;;;;5113862;28;19920;-72
2022/01/04 07:55:25;;;;;;;;;;;31.70;92.70;;;;;;5110209;28;19928;-72
2022/01/04 07:57:51;;;;;;;;;;;31.70;92.30;;;;;;5112591;28;19990;-74
2022/01/04 08:00:17;;;;;;;;;;;31.80;92.70;;;;;;5112946;28;19912;-71
2022/01/04 08:02:44;;;;;;;;;;;31.80;92.30;;;;;;5109283;28;20375;-72
2022/01/04 08:05:11;;;;;;;;;;;31.70;90.70;;;;;;5113902;28;19958;-73
2022/01/04 08:07:37;;;;;;;;;;;31.80;91.20;;;;;;5113907;28;20344;-72
2022/01/04 08:10:04;;;;;;;;;;;31.80;92.10;;;;;;5114584;28;19908;-73
2022/01/04 08:12:30;;;;;;;;;;;31.90;91.70;;;;;;5113969;28;20353;-72
2022/01/04 08:14:57;;;;;;;;;;;32.00;91.80;;;;;;5113899;27;19907;-73
2022/01/04 08:17:23;;;;;;;;;;;32.10;91.40;;;;;;5113177;28;19930;-73
2022/01/04 08:19:51;;;;;;;;;;;32.10;91.20;;;;;;5113185;28;19915;-73
2022/01/04 08:22:18;;;;;;;;;;;32.10;91.10;;;;;;5113873;28;19947;-72
2022/01/04 08:24:44;;;;;;;;;;;32.10;91.70;;;;;;5109280;28;19919;-76
2022/01/04 08:27:11;;;;;;;;;;;32.10;91.60;;;;;;5113175;28;19922;-73
2022/01/04 08:29:37;;;;;;;;;;;32.20;90.80;;;;;;5114334;28;19915;-73
2022/01/04 08:32:03;;;;;;;;;;;32.20;91.20;;;;;;5113495;28;19919;-72
2022/01/04 08:34:29;;;;;;;;;;;32.20;91.20;;;;;;5111651;28;19943;-74
2022/01/04 08:36:56;;;;;;;;;;;32.20;91.50;;;;;;5113786;28;19914;-74
2022/01/04 08:39:26;;;;;;;;;;;32.10;91.60;;;;;;5117934;28;19912;-73
2022/01/04 08:41:54;;;;;;;;;;;32.00;91.70;;;;;;5112676;28;19915;-71
2022/01/04 08:44:21;;;;;;;;;;;32.00;91.60;;;;;;5118424;28;19943;-73
2022/01/04 08:46:48;;;;;;;;;;;32.00;91.70;;;;;;5118087;28;19942;-73
2022/01/04 08:49:14;;;;;;;;;;;32.10;91.80;;;;;;5117982;28;19919;-72
2022/01/04 08:51:40;;;;;;;;;;;32.10;91.40;;;;;;5115966;28;19973;-75
2022/01/04 08:54:06;;;;;;;;;;;32.10;90.80;;;;;;5116150;28;19911;-72
2022/01/04 08:56:33;;;;;;;;;;;32.00;90.90;;;;;;5117467;28;19965;-74
2022/01/04 08:58:59;;;;;;;;;;;32.00;91.10;;;;;;5118224;28;19915;-74
2022/01/04 09:01:26;;;;;;;;;;;32.00;91.70;;;;;;5116942;27;19991;-75
2022/01/04 09:03:52;;;;;;;;;;;32.00;91.50;;;;;;5117949;28;19983;-78
2022/01/04 09:06:20;;;;;;;;;;;32.00;91.50;;;;;;5117329;28;19938;-78
2022/01/04 09:08:46;;;;;;;;;;;32.00;92.10;;;;;;5118210;28;20114;-74
2022/01/04 09:11:12;;;;;;;;;;;32.00;92.10;;;;;;5117183;28;20437;-72
2022/01/04 09:13:42;;;;;;;;;;;32.00;92.00;;;;;;5117415;28;19941;-73
2022/01/04 09:21:08;;;;;;;;;;;32.00;92.40;;;;;;5116678;28;20019;-73
2022/01/04 09:23:34;;;;;;;;;;;32.00;92.70;;;;;;5114828;28;20003;-76
2022/01/04 09:26:01;;;;;;;;;;;31.90;92.40;;;;;;5117072;28;19934;-77
2022/01/04 09:28:27;;;;;;;;;;;31.90;92.30;;;;;;5113036;27;20272;-75
2022/01/04 09:30:53;;;;;;;;;;;32.00;92.80;;;;;;5108724;28;19915;-73
2022/01/04 09:33:20;;;;;;;;;;;32.00;92.40;;;;;;5116354;28;19916;-72
2022/01/04 09:35:46;;;;;;;;;;;31.90;92.20;;;;;;5116509;28;20044;-74
2022/01/04 09:38:13;;;;;;;;;;;32.00;92.10;;;;;;5115101;28;19922;-77
2022/01/04 09:40:39;;;;;;;;;;;31.90;92.30;;;;;;5114410;28;19926;-78
2022/01/04 09:43:06;;;;;;;;;;;31.90;92.60;;;;;;5115925;28;19998;-72
2022/01/04 09:45:32;;;;;;;;;;;31.90;92.10;;;;;;5114613;28;20353;-69
2022/01/04 09:47:59;;;;;;;;;;;31.90;92.50;;;;;;5113618;27;19916;-68
2022/01/04 09:50:25;;;;;;;;;;;31.90;92.60;;;;;;5112695;28;19915;-69
2022/01/04 09:52:53;;;;;;;;;;;31.90;93.10;;;;;;5116163;28;19912;-69
2022/01/04 09:55:19;;;;;;;;;;;31.80;93.50;;;;;;5116787;28;19956;-68
2022/01/04 09:57:46;;;;;;;;;;;31.80;93.90;;;;;;5116204;28;19947;-69
2022/01/04 10:00:14;;;;;;;;;;;31.70;94.00;;;;;;5116065;28;20317;-68
2022/01/04 10:02:41;;;;;;;;;;;31.80;94.40;;;;;;5116065;28;20356;-69
2022/01/04 10:05:15;;;;;;;;;;;31.70;94.00;;;;;;5116236;28;19958;-70
2022/01/04 10:07:41;;;;;;;;;;;31.70;94.80;;;;;;5115540;28;19958;-70
2022/01/04 10:10:09;;;;;;;;;;;31.80;94.70;;;;;;5116372;28;19965;-70
2022/01/04 10:12:56;;;;;;;;;;;31.70;94.80;;;;;;5116454;28;19981;-71
2022/01/04 10:15:34;;;;;;;;;;;31.60;94.50;;;;;;5115505;28;19948;-68
2022/01/04 10:18:12;;;;;;;;;;;31.60;94.50;;;;;;5110999;28;19908;-70
2022/01/04 10:20:39;;;;;;;;;;;31.50;95.00;;;;;;5095956;28;19912;-70
2022/01/04 10:23:10;;;;;;;;;;;31.50;94.40;;;;;;5114692;28;20398;-70
2022/01/04 10:25:36;;;;;;;;;;;31.50;94.10;;;;;;5113377;28;19912;-70
2022/01/04 10:28:03;;;;;;;;;;;31.30;94.00;;;;;;5122897;27;20372;-70
2022/01/04 10:30:31;;;;;;;;;;;31.30;94.60;;;;;;5116228;28;19919;-69
2022/01/04 10:32:59;;;;;;;;;;;31.20;94.60;;;;;;5118544;27;20108;-68
2022/01/04 10:35:28;;;;;;;;;;;31.20;95.20;;;;;;5116942;27;19922;-70
2022/01/04 10:37:55;;;;;;;;;;;31.20;95.40;;;;;;5115022;28;19926;-72
2022/01/04 10:40:22;;;;;;;;;;;31.20;95.10;;;;;;5115071;28;19916;-69
2022/01/04 10:42:48;;;;;;;;;;;31.20;95.50;;;;;;5114667;28;20378;-71
2022/01/04 10:45:29;;;;;;;;;;;31.20;94.90;;;;;;5115139;28;19908;-70
2022/01/04 10:47:55;;;;;;;;;;;31.10;95.30;;;;;;5110441;28;20289;-73
2022/01/04 10:50:31;;;;;;;;;;;31.10;95.30;;;;;;5114098;28;19920;-73
2022/01/04 10:52:59;;;;;;;;;;;31.00;95.30;;;;;;5114079;28;19964;-72
2022/01/04 10:55:29;;;;;;;;;;;31.00;95.90;;;;;;5112996;28;19911;-73
2022/01/04 10:57:57;;;;;;;;;;;31.10;95.70;;;;;;5114600;28;20280;-73
2022/01/04 11:00:24;;;;;;;;;;;31.00;96.20;;;;;;5112687;28;19919;-74
2022/01/04 11:02:50;;;;;;;;;;;31.10;96.40;;;;;;5114192;28;19908;-75
2022/01/04 11:05:17;;;;;;;;;;;31.10;96.00;;;;;;5113971;28;19919;-76
2022/01/04 11:07:55;;;;;;;;;;;31.10;96.50;;;;;;5111860;28;20315;-76
2022/01/04 11:10:22;;;;;;;;;;;31.00;96.80;;;;;;5114031;28;20356;-77
2022/01/04 11:12:48;;;;;;;;;;;31.00;96.90;;;;;;5114546;28;20501;-76
2022/01/04 11:15:15;;;;;;;;;;;30.90;97.30;;;;;;5114575;28;19914;-77
2022/01/04 11:17:41;;;;;;;;;;;31.00;97.20;;;;;;5112821;28;19912;-75
2022/01/04 11:20:08;;;;;;;;;;;30.90;96.80;;;;;;5104988;28;19912;-74
2022/01/04 11:22:35;;;;;;;;;;;30.80;97.00;;;;;;5112475;28;19919;-74
2022/01/04 11:25:03;;;;;;;;;;;30.80;97.40;;;;;;5112421;28;19985;-74
2022/01/04 11:27:31;;;;;;;;;;;30.80;97.30;;;;;;5113867;28;19962;-74
2022/01/04 11:29:58;;;;;;;;;;;30.80;98.20;;;;;;5112629;28;20376;-72
2022/01/04 11:32:25;;;;;;;;;;;30.80;97.90;;;;;;5112517;28;19916;-71
2022/01/04 11:34:51;;;;;;;;;;;30.70;97.80;;;;;;5111852;28;19912;-70
2022/01/04 11:37:18;;;;;;;;;;;30.60;97.70;;;;;;5110966;28;19912;-72
2022/01/04 11:39:45;;;;;;;;;;;30.60;98.20;;;;;;5114178;28;19911;-77
2022/01/04 11:42:13;;;;;;;;;;;30.60;98.40;;;;;;5112677;28;20325;-75
2022/01/04 11:44:47;;;;;;;;;;;30.50;98.10;;;;;;5114082;28;19912;-71
2022/01/04 11:47:23;;;;;;;;;;;30.50;98.60;;;;;;5113285;28;19923;-72
2022/01/04 11:50:01;;;;;;;;;;;30.40;99.10;;;;;;5111217;28;19986;-70
2022/01/04 11:52:37;;;;;;;;;;;30.30;99.10;;;;;;5113421;28;19911;-70
2022/01/04 11:55:15;;;;;;;;;;;30.30;99.40;;;;;;5114262;28;19955;-78
2022/01/04 11:57:41;;;;;;;;;;;30.20;99.90;;;;;;5114110;28;19916;-73
2022/01/04 12:00:08;;;;;;;;;;;30.20;99.90;;;;;;5110856;28;19918;-73
2022/01/04 12:02:38;;;;;;;;;;;30.20;99.90;;;;;;5110617;28;20102;-74
2022/01/04 12:05:04;;;;;;;;;;;30.20;99.90;;;;;;5112688;28;21007;-75
2022/01/04 12:07:44;;;;;;;;;;;30.10;99.90;;;;;;5113090;28;19916;-75
2022/01/04 12:10:20;;;;;;;;;;;30.10;99.90;;;;;;5112811;28;19912;-75
2022/01/04 12:12:58;;;;;;;;;;;30.10;99.90;;;;;;5112361;28;19927;-76
2022/01/04 12:15:33;;;;;;;;;;;30.00;99.90;;;;;;5112557;28;19920;-74
2022/01/04 12:18:02;;;;;;;;;;;30.00;99.90;;;;;;5111430;28;20389;-76
2022/01/04 12:20:40;;;;;;;;;;;29.90;99.90;;;;;;5111472;28;19958;-73
2022/01/04 12:23:18;;;;;;;;;;;29.90;99.90;;;;;;5110697;28;19955;-76
2022/01/04 12:26:14;;;;;;;;;;;29.80;99.90;;;;;;5112027;28;20368;-73
2022/01/04 12:28:41;;;;;;;;;;;29.80;99.90;;;;;;5111477;28;19969;-75
2022/01/04 12:31:17;;;;;;;;;;;29.80;99.90;;;;;;5112235;28;19911;-75
2022/01/04 12:33:43;;;;;;;;;;;29.90;99.90;;;;;;5114452;28;19918;-74
2022/01/04 12:36:10;;;;;;;;;;;29.80;99.90;;;;;;5111824;28;20363;-74
2022/01/04 12:38:37;;;;;;;;;;;29.70;99.90;;;;;;5113019;28;19957;-72
2022/01/04 12:41:04;;;;;;;;;;;29.70;99.90;;;;;;5113279;28;20287;-75
2022/01/04 12:43:33;;;;;;;;;;;29.70;99.90;;;;;;5112187;28;20447;-74
2022/01/04 12:46:01;;;;;;;;;;;29.70;99.90;;;;;;5112874;28;19923;-70
2022/01/04 12:48:39;;;;;;;;;;;29.70;99.90;;;;;;5113257;28;19916;-72
2022/01/04 12:51:16;;;;;;;;;;;29.70;99.90;;;;;;5113273;28;19991;-71
2022/01/04 12:53:42;;;;;;;;;;;29.50;99.90;;;;;;5112077;28;20119;-72
2022/01/04 12:56:09;;;;;;;;;;;29.50;99.90;;;;;;5108411;28;19930;-72
2022/01/04 12:58:37;;;;;;;;;;;29.40;99.90;;;;;;5110278;28;19957;-72
2022/01/04 13:01:03;;;;;;;;;;;29.40;99.90;;;;;;5113056;28;19916;-72
2022/01/04 13:03:32;;;;;;;;;;;29.40;99.90;;;;;;5111072;28;20014;-73
2022/01/04 13:06:00;;;;;;;;;;;29.30;99.90;;;;;;5109872;28;20391;-72
2022/01/04 13:08:27;;;;;;;;;;;29.40;99.90;;;;;;5110455;28;19951;-70
2022/01/04 13:11:05;;;;;;;;;;;29.40;99.90;;;;;;5112666;28;20368;-72
2022/01/04 13:13:31;;;;;;;;;;;29.40;99.90;;;;;;5112240;28;19918;-72
2022/01/04 13:16:09;;;;;;;;;;;29.40;99.90;;;;;;5113198;28;19939;-72
2022/01/04 13:18:35;;;;;;;;;;;29.40;99.90;;;;;;5113236;28;19918;-73
2022/01/04 13:21:07;;;;;;;;;;;29.40;99.90;;;;;;5113903;28;19957;-72
2022/01/04 13:23:40;;;;;;;;;;;29.40;99.90;;;;;;5113892;28;19919;-72
2022/01/04 13:26:08;;;;;;;;;;;29.30;99.90;;;;;;5117184;28;19915;-73
2022/01/04 13:28:35;;;;;;;;;;;29.30;99.90;;;;;;5113184;28;19912;-71
2022/01/04 13:31:01;;;;;;;;;;;29.30;99.90;;;;;;5117181;28;20041;-72
2022/01/04 13:33:27;;;;;;;;;;;29.30;99.90;;;;;;5117125;28;19908;-72
2022/01/04 13:35:56;;;;;;;;;;;29.10;99.90;;;;;;5113899;28;20402;-71
2022/01/04 13:38:23;;;;;;;;;;;29.10;99.90;;;;;;5099713;22;19951;-70
2022/01/04 13:40:51;;;;;;;;;;;29.00;99.90;;;;;;5067675;28;20325;-72
2022/01/04 13:43:19;;;;;;;;;;;29.00;99.90;;;;;;5056246;28;20259;-71
2022/01/04 13:45:49;;;;;;;;;;;29.00;99.90;;;;;;5055711;28;19912;-73
2022/01/04 13:48:23;;;;;;;;;;;29.00;99.90;;;;;;5054441;28;20385;-73
2022/01/04 13:50:49;;;;;;;;;;;28.90;99.90;;;;;;5054313;28;19919;-71
2022/01/04 13:53:17;;;;;;;;;;;28.90;99.90;;;;;;5054762;28;20026;-72
2022/01/04 13:55:51;;;;;;;;;;;28.90;99.90;;;;;;5054442;28;19919;-71
2022/01/04 13:58:28;;;;;;;;;;;28.90;99.90;;;;;;5055947;28;19909;-74
2022/01/04 14:00:55;;;;;;;;;;;28.80;99.90;;;;;;5055309;28;20368;-72
2022/01/04 14:03:29;;;;;;;;;;;28.80;99.90;;;;;;5054493;28;19909;-72
2022/01/04 14:05:55;;;;;;;;;;;28.80;99.90;;;;;;5053039;28;19909;-70
2022/01/04 14:08:41;;;;;;;;;;;28.80;99.90;;;;;;5055626;28;20106;-70
2022/01/04 14:11:07;;;;;;;;;;;28.80;99.90;;;;;;5055252;28;19913;-72
2022/01/04 14:13:36;;;;;;;;;;;28.80;99.90;;;;;;5056171;28;20364;-73
2022/01/04 14:16:13;;;;;;;;;;;28.90;99.90;;;;;;5055842;28;20011;-74
2022/01/04 14:18:51;;;;;;;;;;;28.90;99.90;;;;;;5055449;28;19909;-70
2022/01/04 14:21:17;;;;;;;;;;;28.80;99.90;;;;;;5055371;28;19919;-71
2022/01/04 14:23:43;;;;;;;;;;;28.70;99.90;;;;;;5055225;28;20349;-75
2022/01/04 14:26:09;;;;;;;;;;;28.70;99.90;;;;;;5055216;28;19992;-75
2022/01/04 14:28:35;;;;;;;;;;;28.70;99.90;;;;;;5052411;28;19909;-71
2022/01/04 14:31:01;;;;;;;;;;;28.60;99.90;;;;;;5054114;28;19913;-74
2022/01/04 14:33:28;;;;;;;;;;;28.70;99.90;;;;;;5054627;28;19959;-74
2022/01/04 14:35:56;;;;;;;;;;;28.70;99.90;;;;;;5053992;28;19913;-72
2022/01/04 14:38:22;;;;;;;;;;;28.60;99.90;;;;;;5051074;28;19925;-71
2022/01/04 14:40:48;;;;;;;;;;;28.50;99.90;;;;;;5049127;28;19920;-72
2022/01/04 14:43:14;;;;;;;;;;;28.50;99.90;;;;;;5045725;28;20347;-72